Terminal Aerodrome Forecast
Issued by NWS New Orleans/Baton Rouge, LA

Home | Current Version | Previous Version | Text Only | Print | Product List | Glossary On
Versions: 1 2 3 4 5 6 7 8 9 10 11 12 13 14 15 16 17 18 19 20 21 22 23 24 25 26 27 28 29
000
FTUS44 KLIX 172300
TAFNEW
TAF
KNEW 172339Z 1800/1824 10013KT P6SM SCT010 BKN016
     FM180900 04020G28KT P6SM OVC008
     FM181700 03013KT P6SM BKN008
     FM182100 02014KT P6SM SCT050=

USA.gov is the U.S. government's official web portal to all federal, state and local government web resources and services.